Time;durP1;ratioP1;P1;durP2;ratioP2;P2;SDS_P1;SDS_P2;PMS_P1;PMS_P2;Temp;Humidity;BMP_temperature;BMP_pressure;BME280_temperature;BME280_humidity;BME280_pressure;Samples;Min_cycle;Max_cycle;Signal;HPM_P1;HPM_P2
2022/12/09 00:02:03;;;;;;;24.55;12.80;;;;;;;4.35;84.43;100275.84;5045340;27;20432;-68
2022/12/09 00:04:29;;;;;;;24.30;12.20;;;;;;;4.21;84.75;100288.41;5042399;28;20051;-68
2022/12/09 00:06:56;;;;;;;29.95;13.48;;;;;;;3.81;86.46;100288.84;5044431;28;20040;-68
2022/12/09 00:09:23;;;;;;;26.35;13.32;;;;;;;3.22;89.48;100290.63;5048736;28;20067;-68
2022/12/09 00:11:51;;;;;;;26.65;12.82;;;;;;;3.40;89.71;100284.06;5062738;28;20044;-68
2022/12/09 00:14:18;;;;;;;23.48;11.07;;;;;;;3.90;86.81;100275.59;5043067;28;20124;-68
2022/12/09 00:16:44;;;;;;;22.85;11.75;;;;;;;4.01;85.12;100287.38;5049633;28;20048;-68
2022/12/09 00:19:11;;;;;;;20.52;11.45;;;;;;;4.16;84.78;100281.69;5049226;27;20100;-68
2022/12/09 00:21:37;;;;;;;24.35;12.05;;;;;;;3.38;87.44;100286.72;5039073;27;20047;-68
2022/12/09 00:24:06;;;;;;;24.50;11.25;;;;;;;2.79;91.11;100288.41;5048916;27;20463;-68
2022/12/09 00:26:34;;;;;;;25.17;10.90;;;;;;;2.97;91.71;100299.13;5048899;27;20045;-69
2022/12/09 00:29:01;;;;;;;21.50;10.43;;;;;;;3.04;91.09;100290.31;5039252;27;20048;-69
2022/12/09 00:31:29;;;;;;;25.70;12.30;;;;;;;3.33;89.58;100298.09;5055584;28;20671;-69
2022/12/09 00:33:58;;;;;;;26.25;11.27;;;;;;;2.78;92.40;100301.38;5049135;28;20082;-69
2022/12/09 00:36:25;;;;;;;29.15;11.38;;;;;;;3.28;90.38;100302.56;5039154;28;20408;-69
2022/12/09 00:38:53;;;;;;;20.88;10.10;;;;;;;3.64;88.11;100308.41;5048526;28;20049;-68
2022/12/09 00:41:19;;;;;;;22.23;10.80;;;;;;;3.86;86.42;100304.25;5080064;28;20047;-68
2022/12/09 00:43:47;;;;;;;22.67;10.10;;;;;;;3.89;86.33;100299.81;5039099;28;20051;-68
2022/12/09 00:46:15;;;;;;;26.13;10.90;;;;;;;3.62;87.53;100308.44;5048418;28;20075;-69
2022/12/09 00:48:42;;;;;;;22.58;9.27;;;;;;;3.84;86.44;100293.91;5052322;28;20124;-69
2022/12/09 00:51:12;;;;;;;25.15;10.18;;;;;;;3.90;85.47;100293.75;5045029;28;20393;-68
2022/12/09 00:53:39;;;;;;;21.55;8.82;;;;;;;4.00;85.37;100299.50;5056661;28;20049;-68
2022/12/09 00:56:06;;;;;;;17.10;8.93;;;;;;;4.10;84.52;100290.50;5048480;28;20052;-69
2022/12/09 00:58:32;;;;;;;21.90;8.60;;;;;;;4.16;84.16;100292.06;5040911;28;20056;-69
2022/12/09 01:01:00;;;;;;;24.73;9.82;;;;;;;4.17;84.20;100293.78;5052729;28;20052;-69
2022/12/09 01:03:27;;;;;;;21.60;9.18;;;;;;;4.22;83.52;100304.81;5048566;28;20052;-69
2022/12/09 01:05:54;;;;;;;16.60;7.95;;;;;;;4.17;83.69;100302.41;5040133;28;20055;-68
2022/12/09 01:08:20;;;;;;;21.65;8.93;;;;;;;4.27;83.40;100297.75;5051572;28;20400;-69
2022/12/09 01:10:47;;;;;;;23.83;10.25;;;;;;;4.09;83.55;100300.94;5051651;28;20127;-69
2022/12/09 01:13:15;;;;;;;21.98;9.73;;;;;;;3.67;85.99;100309.16;5041366;28;20064;-69
2022/12/09 01:15:42;;;;;;;20.00;9.88;;;;;;;3.55;86.26;100313.88;5051216;28;20068;-69
2022/12/09 01:18:11;;;;;;;21.73;9.57;;;;;;;3.77;86.45;100312.34;5058364;28;20059;-69
2022/12/09 01:20:37;;;;;;;16.30;9.20;;;;;;;4.09;85.06;100309.59;5049849;28;20127;-69
2022/12/09 01:23:04;;;;;;;22.45;10.38;;;;;;;4.07;84.35;100300.97;5051979;28;20056;-69
2022/12/09 01:25:30;;;;;;;22.60;10.15;;;;;;;3.89;84.84;100306.75;5051951;28;20488;-68
2022/12/09 01:27:57;;;;;;;22.65;10.68;;;;;;;3.65;85.99;100310.97;5041666;28;20625;-69
2022/12/09 01:30:23;;;;;;;18.83;9.35;;;;;;;3.80;85.90;100313.09;5059394;28;20044;-69
2022/12/09 01:32:50;;;;;;;22.80;10.30;;;;;;;3.21;88.03;100306.25;5051709;28;20049;-69
2022/12/09 01:35:18;;;;;;;19.88;9.18;;;;;;;3.54;87.36;100313.03;5041051;28;20060;-69
2022/12/09 01:37:44;;;;;;;21.63;9.48;;;;;;;3.52;87.07;100307.03;5050974;28;20044;-69
2022/12/09 01:40:16;;;;;;;21.55;10.18;;;;;;;3.41;87.37;100299.56;5050919;28;20052;-69
2022/12/09 01:42:42;;;;;;;20.67;9.15;;;;;;;3.78;86.83;100309.69;5051228;28;20067;-69
2022/12/09 01:45:38;;;;;;;21.95;9.88;;;;;;;4.11;85.12;100304.31;5050766;28;20500;-69
2022/12/09 01:48:10;;;;;;;20.88;9.00;;;;;;;3.95;84.37;100308.31;5047665;28;20052;-69
2022/12/09 01:50:41;;;;;;;18.98;8.68;;;;;;;3.00;87.83;100320.63;5063083;28;20040;-69
2022/12/09 01:53:08;;;;;;;21.80;8.55;;;;;;;2.78;89.86;100320.34;5062620;28;20412;-69
2022/12/09 01:55:35;;;;;;;19.75;10.32;;;;;;;2.88;89.52;100318.38;5071473;28;20048;-69
2022/12/09 01:58:03;;;;;;;19.48;8.40;;;;;;;3.03;88.83;100306.75;5064006;28;20054;-69
2022/12/09 02:00:29;;;;;;;21.08;9.55;;;;;;;2.71;89.61;100308.47;5084571;27;20051;-69
2022/12/09 02:02:56;;;;;;;17.95;8.80;;;;;;;2.03;93.67;100302.47;5071478;28;20043;-69
2022/12/09 02:05:24;;;;;;;26.17;9.35;;;;;;;1.91;95.47;100311.34;5062119;28;20048;-68
2022/12/09 02:07:52;;;;;;;23.27;10.45;;;;;;;2.30;93.12;100308.69;5042139;28;20100;-68
2022/12/09 02:10:21;;;;;;;22.17;8.68;;;;;;;2.59;92.56;100311.38;5051067;28;20051;-69
2022/12/09 02:12:55;;;;;;;23.33;8.80;;;;;;;2.80;90.22;100299.63;5051845;28;20412;-69
2022/12/09 02:15:25;;;;;;;23.15;9.00;;;;;;;3.00;89.85;100302.50;5051676;28;20634;-69
2022/12/09 02:17:54;;;;;;;23.08;9.98;;;;;;;2.38;92.38;100301.56;5052820;27;20055;-69
2022/12/09 02:20:28;;;;;;;18.48;8.45;;;;;;;2.58;91.40;100293.31;5054276;28;20126;-69
2022/12/09 02:23:05;;;;;;;18.00;7.82;;;;;;;2.70;90.64;100303.31;5071162;28;20411;-69
2022/12/09 02:25:39;;;;;;;16.98;8.48;;;;;;;3.05;89.09;100304.97;5021126;28;20497;-68
2022/12/09 02:28:29;;;;;;;18.33;7.40;;;;;;;3.48;87.45;100300.25;5049480;28;20052;-68
2022/12/09 02:31:06;;;;;;;22.88;8.30;;;;;;;2.96;87.76;100305.22;5050118;28;20040;-68
2022/12/09 02:33:43;;;;;;;18.83;8.35;;;;;;;2.65;90.01;100300.88;5071180;28;20070;-69
2022/12/09 02:36:15;;;;;;;21.45;8.52;;;;;;;2.48;91.20;100299.63;5053385;28;20071;-69
2022/12/09 02:38:42;;;;;;;23.13;8.60;;;;;;;2.55;91.74;100296.00;5049555;27;20048;-68
2022/12/09 02:41:14;;;;;;;20.90;8.63;;;;;;;2.81;90.42;100296.97;5049687;27;20072;-68
2022/12/09 02:43:45;;;;;;;25.20;9.65;;;;;;;2.85;90.43;100301.19;5050706;28;20048;-68
2022/12/09 02:46:14;;;;;;;18.55;8.65;;;;;;;2.83;89.81;100296.94;5050730;28;20055;-68
2022/12/09 02:48:45;;;;;;;20.27;8.82;;;;;;;2.83;89.68;100299.53;5048943;28;20043;-68
2022/12/09 02:51:16;;;;;;;23.48;9.30;;;;;;;2.43;91.85;100295.41;5065030;28;20055;-69
2022/12/09 02:53:46;;;;;;;26.45;10.07;;;;;;;2.48;91.96;100297.84;5059389;28;20478;-68
2022/12/09 02:56:15;;;;;;;24.15;9.13;;;;;;;2.57;92.19;100294.19;5050570;28;20821;-68
2022/12/09 02:58:41;;;;;;;20.13;8.68;;;;;;;2.80;90.46;100297.03;5053057;28;20048;-68
2022/12/09 03:01:20;;;;;;;26.88;9.95;;;;;;;2.51;91.49;100297.81;5047455;28;20063;-68
2022/12/09 03:03:47;;;;;;;22.83;8.95;;;;;;;2.74;91.14;100295.44;5050053;28;20173;-68
2022/12/09 03:06:18;;;;;;;22.85;10.10;;;;;;;2.75;90.21;100297.16;5050484;28;20479;-68
2022/12/09 03:08:51;;;;;;;31.40;9.52;;;;;;;2.77;90.15;100295.34;5039964;28;20447;-68
2022/12/09 03:11:19;;;;;;;25.48;10.07;;;;;;;2.87;89.53;100294.22;5061734;28;20051;-68
2022/12/09 03:13:55;;;;;;;19.58;9.35;;;;;;;2.93;88.79;100290.59;5092455;27;20051;-68
2022/12/09 03:16:29;;;;;;;22.48;8.93;;;;;;;2.75;89.27;100286.78;5060098;27;20045;-68
2022/12/09 03:18:59;;;;;;;23.70;8.93;;;;;;;2.72;89.08;100279.13;5061487;27;20035;-69
2022/12/09 03:21:31;;;;;;;19.63;8.60;;;;;;;3.05;87.49;100279.06;5049973;28;20048;-69
2022/12/09 03:24:00;;;;;;;19.43;9.37;;;;;;;3.02;86.51;100281.75;5050198;28;20052;-69
2022/12/09 03:26:29;;;;;;;22.98;8.77;;;;;;;2.98;86.75;100277.53;5040072;28;20488;-69
2022/12/09 03:29:00;;;;;;;21.17;8.20;;;;;;;3.13;84.11;100279.69;5051197;28;20055;-69
2022/12/09 03:31:30;;;;;;;22.30;8.80;;;;;;;2.55;85.86;100273.50;5053161;28;20040;-69
2022/12/09 03:34:00;;;;;;;17.45;8.15;;;;;;;2.52;85.51;100278.78;5039848;28;20044;-69
2022/12/09 03:36:32;;;;;;;23.15;9.13;;;;;;;2.62;84.87;100274.22;5049126;28;20067;-69
2022/12/09 03:39:00;;;;;;;19.15;8.38;;;;;;;2.58;85.62;100273.47;5038523;28;20045;-69
2022/12/09 03:41:29;;;;;;;17.30;8.25;;;;;;;2.77;85.01;100279.81;5049196;28;20436;-68
2022/12/09 03:44:01;;;;;;;20.73;8.77;;;;;;;2.77;84.00;100277.22;5048871;28;20040;-68
2022/12/09 03:46:29;;;;;;;22.20;8.98;;;;;;;2.89;83.45;100279.50;5038922;28;20493;-68
2022/12/09 03:48:56;;;;;;;17.15;8.32;;;;;;;2.72;83.71;100281.69;5056904;28;20080;-68
2022/12/09 03:51:26;;;;;;;17.65;8.20;;;;;;;2.88;83.13;100282.97;5066452;28;20063;-68
2022/12/09 03:53:59;;;;;;;25.25;9.05;;;;;;;3.00;82.51;100275.75;5045634;27;20052;-68
2022/12/09 03:56:28;;;;;;;18.30;8.23;;;;;;;3.06;82.12;100280.78;5049107;27;20041;-68
2022/12/09 03:58:57;;;;;;;20.70;8.35;;;;;;;2.99;82.42;100279.25;5037741;28;20063;-68
2022/12/09 04:01:25;;;;;;;18.70;8.88;;;;;;;3.02;82.29;100279.16;5054967;28;20048;-68
2022/12/09 04:03:54;;;;;;;21.15;9.20;;;;;;;2.95;82.18;100278.50;5048040;28;20049;-68
2022/12/09 04:06:21;;;;;;;22.00;9.60;;;;;;;2.91;82.64;100279.47;5038376;27;20052;-68
2022/12/09 04:08:48;;;;;;;41.05;9.52;;;;;;;3.00;82.09;100275.75;5048262;28;20052;-69
2022/12/09 04:11:15;;;;;;;20.77;9.00;;;;;;;3.02;82.43;100280.00;5048042;28;20052;-69
2022/12/09 04:13:42;;;;;;;23.75;9.52;;;;;;;2.74;82.88;100273.88;5039136;27;20051;-69
2022/12/09 04:16:09;;;;;;;130.82;12.40;;;;;;;2.93;82.54;100275.94;5048255;27;20516;-69
2022/12/09 04:18:35;;;;;;;29.70;8.70;;;;;;;2.87;82.66;100281.28;5055234;28;24797;-69
2022/12/09 04:21:05;;;;;;;21.58;9.38;;;;;;;2.79;82.84;100283.22;5056450;28;20055;-68
2022/12/09 04:23:32;;;;;;;192.43;12.32;;;;;;;2.80;82.51;100278.91;5032505;28;20048;-68
2022/12/09 04:25:58;;;;;;;140.43;11.00;;;;;;;2.73;82.92;100277.38;5048571;28;20425;-69
2022/12/09 04:28:26;;;;;;;75.07;11.10;;;;;;;2.76;83.50;100275.56;5047047;28;20048;-69
2022/12/09 04:30:52;;;;;;;27.65;9.43;;;;;;;2.75;83.11;100273.84;5058808;28;20051;-69
2022/12/09 04:33:19;;;;;;;22.85;9.98;;;;;;;2.60;83.80;100274.25;5060993;27;20043;-69
2022/12/09 04:35:45;;;;;;;83.50;11.40;;;;;;;2.72;83.55;100266.16;5064866;27;20055;-69
2022/12/09 04:38:12;;;;;;;101.10;11.93;;;;;;;2.80;83.45;100266.81;5049083;28;20040;-69
2022/12/09 04:40:40;;;;;;;34.78;11.30;;;;;;;2.75;83.51;100260.91;5062851;27;20538;-69
2022/12/09 04:43:06;;;;;;;25.77;10.43;;;;;;;2.77;83.69;100268.63;5061293;27;20053;-69
2022/12/09 04:45:34;;;;;;;117.25;12.18;;;;;;;2.97;83.12;100265.47;5075852;27;20644;-69
2022/12/09 04:48:01;;;;;;;114.65;13.10;;;;;;;3.09;83.05;100270.31;5065637;27;20044;-69
2022/12/09 04:50:27;;;;;;;51.70;10.60;;;;;;;3.20;82.37;100257.91;5045271;27;20074;-69
2022/12/09 04:52:54;;;;;;;99.13;11.45;;;;;;;3.34;81.75;100268.69;5052008;27;20044;-69
2022/12/09 04:55:20;;;;;;;35.67;10.15;;;;;;;3.34;81.74;100263.53;5051714;28;20048;-69
2022/12/09 04:57:47;;;;;;;159.52;12.80;;;;;;;3.37;81.47;100263.44;5063368;27;20046;-69
2022/12/09 05:00:14;;;;;;;79.45;11.10;;;;;;;3.45;80.93;100266.63;5078214;27;20396;-69
2022/12/09 05:02:42;;;;;;;71.57;12.00;;;;;;;3.44;81.05;100257.16;5051290;28;20052;-69
2022/12/09 05:05:09;;;;;;;41.83;10.43;;;;;;;3.35;81.55;100266.09;5042864;27;20054;-69
2022/12/09 05:07:36;;;;;;;26.70;11.32;;;;;;;3.33;81.86;100270.44;5051838;28;20052;-69
2022/12/09 05:10:03;;;;;;;48.50;10.70;;;;;;;3.42;81.89;100266.75;5052087;27;20047;-69
2022/12/09 05:12:29;;;;;;;27.30;11.23;;;;;;;3.43;82.04;100261.53;5042169;27;20127;-68
2022/12/09 05:14:57;;;;;;;46.78;20.10;;;;;;;3.44;81.72;100273.56;5051994;28;20044;-68
2022/12/09 05:17:24;;;;;;;54.85;13.18;;;;;;;3.53;81.94;100263.81;5057335;28;20127;-69
2022/12/09 05:19:52;;;;;;;101.78;15.10;;;;;;;3.51;81.76;100263.84;5066852;28;20099;-69
2022/12/09 05:22:19;;;;;;;32.38;13.07;;;;;;;3.53;81.74;100259.47;5052248;27;20492;-69
2022/12/09 05:24:45;;;;;;;37.90;12.38;;;;;;;3.61;82.02;100269.63;5051989;27;20048;-68
2022/12/09 05:27:12;;;;;;;168.32;14.93;;;;;;;3.61;81.41;100256.66;5041153;28;20091;-69
2022/12/09 05:29:39;;;;;;;179.05;13.70;;;;;;;3.57;81.85;100261.09;5062158;28;20063;-69
2022/12/09 05:32:06;;;;;;;272.17;17.13;;;;;;;3.65;81.14;100260.84;5065486;28;20048;-69
2022/12/09 05:34:33;;;;;;;340.63;20.13;;;;;;;3.28;82.66;100269.75;5041630;27;20036;-68
2022/12/09 05:37:01;;;;;;;119.50;12.48;;;;;;;3.09;83.87;100267.72;5051533;27;20451;-68
2022/12/09 05:39:27;;;;;;;64.68;11.23;;;;;;;3.11;84.20;100268.50;5056597;28;20071;-68
2022/12/09 05:41:54;;;;;;;29.67;11.23;;;;;;;3.34;83.72;100271.28;5030532;28;20043;-68
2022/12/09 05:44:20;;;;;;;75.68;14.23;;;;;;;3.29;83.62;100275.75;5047279;28;20512;-68
2022/12/09 05:46:47;;;;;;;73.45;14.65;;;;;;;3.46;83.51;100264.91;5050688;28;20044;-68
2022/12/09 05:49:13;;;;;;;64.05;13.02;;;;;;;3.57;83.47;100268.88;5064710;28;20048;-69
2022/12/09 05:51:39;;;;;;;122.38;19.35;;;;;;;3.68;82.68;100264.19;5067260;28;20048;-69
2022/12/09 05:54:07;;;;;;;75.90;14.13;;;;;;;3.82;82.23;100262.03;5050496;27;20048;-69
2022/12/09 05:56:34;;;;;;;73.13;13.50;;;;;;;3.88;82.20;100261.81;5024838;28;20041;-69
2022/12/09 05:59:03;;;;;;;25.70;12.68;;;;;;;3.87;81.94;100264.47;5059385;28;20052;-69
2022/12/09 06:01:29;;;;;;;30.95;13.27;;;;;;;3.82;82.18;100264.63;5060498;27;20052;-69
2022/12/09 06:03:56;;;;;;;38.15;13.80;;;;;;;3.82;81.84;100255.97;5041477;27;20047;-69
2022/12/09 06:06:26;;;;;;;35.45;14.55;;;;;;;3.89;82.01;100257.47;5051855;27;20049;-69
2022/12/09 06:08:56;;;;;;;32.92;12.95;;;;;;;3.97;81.77;100265.00;5050635;27;20056;-69
2022/12/09 06:11:24;;;;;;;56.53;13.23;;;;;;;4.16;80.86;100264.38;5055355;28;20044;-69
2022/12/09 06:13:51;;;;;;;49.88;14.10;;;;;;;4.02;80.55;100258.78;5050057;28;20040;-69
2022/12/09 06:16:19;;;;;;;30.73;13.80;;;;;;;3.99;81.13;100263.25;5050773;28;20049;-68
2022/12/09 06:18:46;;;;;;;64.18;16.35;;;;;;;3.95;80.92;100261.63;5049172;28;20040;-69
2022/12/09 06:21:14;;;;;;;60.22;14.23;;;;;;;3.91;80.96;100264.34;5062933;27;20412;-69
2022/12/09 06:23:42;;;;;;;38.90;13.90;;;;;;;3.66;81.66;100262.56;5050308;27;20048;-69
2022/12/09 06:26:15;;;;;;;33.60;13.95;;;;;;;3.70;82.27;100265.00;5061011;27;20047;-69
2022/12/09 06:28:43;;;;;;;39.30;13.68;;;;;;;3.88;81.54;100263.59;5067306;28;20051;-69
2022/12/09 06:31:10;;;;;;;46.70;13.80;;;;;;;3.98;81.50;100266.72;5057708;28;20052;-69
2022/12/09 06:33:36;;;;;;;31.52;13.98;;;;;;;4.23;81.10;100259.81;5071729;28;20055;-69
2022/12/09 06:36:04;;;;;;;36.60;13.90;;;;;;;4.30;80.07;100267.34;5055157;27;20053;-69
2022/12/09 06:38:31;;;;;;;35.38;14.27;;;;;;;4.15;80.59;100267.84;5042382;28;20116;-69
2022/12/09 06:40:57;;;;;;;37.80;13.85;;;;;;;4.05;80.76;100256.09;5055466;27;20043;-69
2022/12/09 06:43:23;;;;;;;36.90;13.95;;;;;;;3.96;81.11;100255.53;5087188;27;20040;-69
2022/12/09 06:45:51;;;;;;;38.10;13.93;;;;;;;4.02;81.22;100263.13;5070675;27;20047;-69
2022/12/09 06:48:18;;;;;;;34.38;14.07;;;;;;;3.92;81.71;100255.63;5058651;28;20050;-69
2022/12/09 06:50:45;;;;;;;34.78;13.60;;;;;;;3.87;82.04;100265.31;5049127;27;20403;-69
2022/12/09 06:53:11;;;;;;;36.75;13.48;;;;;;;3.95;81.83;100262.50;5049845;28;20052;-69
2022/12/09 06:55:37;;;;;;;33.65;13.85;;;;;;;4.03;81.54;100257.06;5045750;28;20065;-69
2022/12/09 06:58:04;;;;;;;36.47;14.43;;;;;;;4.10;81.42;100258.53;5055315;27;20044;-69
2022/12/09 07:00:31;;;;;;;30.85;13.20;;;;;;;4.15;81.10;100254.03;5052229;27;20059;-69
2022/12/09 07:02:59;;;;;;;37.35;14.30;;;;;;;4.23;81.18;100259.81;5041785;28;20508;-69
2022/12/09 07:05:26;;;;;;;39.17;14.20;;;;;;;4.18;81.10;100256.53;5049152;28;20048;-69
2022/12/09 07:07:53;;;;;;;33.38;13.18;;;;;;;4.24;80.98;100256.34;5049574;28;20037;-69
2022/12/09 07:10:20;;;;;;;39.40;13.80;;;;;;;4.20;81.15;100253.00;5041913;28;20047;-69
2022/12/09 07:12:46;;;;;;;38.67;13.90;;;;;;;4.14;81.01;100258.38;5049086;27;20051;-69
2022/12/09 07:15:13;;;;;;;38.10;14.70;;;;;;;4.08;81.85;100268.97;5049705;27;20051;-69
2022/12/09 07:17:40;;;;;;;35.80;13.95;;;;;;;3.90;82.17;100269.56;5043182;27;20546;-69
2022/12/09 07:20:09;;;;;;;35.58;12.90;;;;;;;4.17;81.52;100270.41;5056958;27;20502;-69
2022/12/09 07:22:35;;;;;;;37.22;14.30;;;;;;;4.09;81.58;100272.41;5049357;27;20052;-69
2022/12/09 07:25:02;;;;;;;40.88;13.85;;;;;;;4.11;81.75;100275.78;5046060;27;20067;-69
2022/12/09 07:27:28;;;;;;;37.50;13.35;;;;;;;3.99;81.80;100271.03;5049841;27;20506;-69
2022/12/09 07:29:56;;;;;;;47.30;15.23;;;;;;;3.89;82.48;100271.28;5060574;28;20052;-69
2022/12/09 07:32:22;;;;;;;43.20;15.48;;;;;;;3.89;82.54;100273.88;5062316;28;20563;-69
2022/12/09 07:34:51;;;;;;;37.58;13.68;;;;;;;3.86;83.01;100278.31;5058526;27;20055;-69
2022/12/09 07:37:19;;;;;;;40.72;14.18;;;;;;;4.00;82.49;100276.13;5048863;27;20119;-69
2022/12/09 07:39:45;;;;;;;38.55;14.05;;;;;;;4.14;82.02;100280.91;5046131;27;20052;-69
2022/12/09 07:42:12;;;;;;;41.13;14.80;;;;;;;4.22;82.24;100284.91;5034547;28;20056;-69
2022/12/09 07:44:38;;;;;;;38.33;14.50;;;;;;;4.19;81.53;100279.84;5048413;27;20048;-69
2022/12/09 07:47:05;;;;;;;38.80;14.05;;;;;;;4.51;80.77;100288.31;5042691;28;20049;-69
2022/12/09 07:49:31;;;;;;;41.90;14.25;;;;;;;4.25;81.70;100278.81;5057753;28;20044;-69
2022/12/09 07:51:57;;;;;;;29.98;12.55;;;;;;;4.34;81.80;100281.06;5062302;28;20045;-69
2022/12/09 07:54:25;;;;;;;31.13;12.38;;;;;;;4.46;81.40;100283.28;5022444;27;20055;-69
2022/12/09 07:56:52;;;;;;;38.95;12.95;;;;;;;4.51;81.18;100280.53;5048584;27;20063;-69
2022/12/09 07:59:18;;;;;;;32.50;12.80;;;;;;;4.62;81.08;100273.22;5048288;27;20048;-69
2022/12/09 08:01:47;;;;;;;32.03;12.82;;;;;;;4.65;80.96;100276.53;5037798;28;20048;-69
2022/12/09 08:04:16;;;;;;;34.47;12.80;;;;;;;4.72;80.86;100278.03;5047953;28;20071;-69
2022/12/09 08:06:43;;;;;;;33.38;12.45;;;;;;;4.70;79.93;100271.16;5025421;28;20060;-69
2022/12/09 08:09:12;;;;;;;32.05;12.63;;;;;;;4.66;80.47;100273.03;5036375;28;20091;-69
2022/12/09 08:11:40;;;;;;;23.60;11.38;;;;;;;4.64;80.15;100272.25;5047839;28;20485;-69
2022/12/09 08:14:08;;;;;;;28.08;11.50;;;;;;;4.79;79.39;100273.47;5038068;28;20045;-69
2022/12/09 08:16:34;;;;;;;26.70;11.82;;;;;;;4.77;79.32;100273.50;5048031;28;20048;-69
2022/12/09 08:19:01;;;;;;;25.65;11.35;;;;;;;4.48;80.02;100280.59;5055832;28;20056;-69
2022/12/09 08:21:29;;;;;;;29.08;11.65;;;;;;;4.34;80.64;100287.13;5049762;27;20055;-69
2022/12/09 08:23:58;;;;;;;32.90;11.25;;;;;;;3.74;82.95;100284.75;5049100;27;20048;-69
2022/12/09 08:26:26;;;;;;;36.55;12.45;;;;;;;3.36;84.66;100293.66;5047854;27;20044;-69
2022/12/09 08:28:54;;;;;;;31.15;10.57;;;;;;;3.23;85.98;100296.66;5037503;28;20052;-69
2022/12/09 08:31:22;;;;;;;33.70;11.98;;;;;;;2.64;89.34;100290.56;5040593;28;20044;-69
2022/12/09 08:33:50;;;;;;;37.17;12.30;;;;;;;3.02;89.16;100292.09;5047818;27;20033;-69
2022/12/09 08:36:21;;;;;;;82.85;10.85;;;;;;;3.15;87.58;100290.84;5028022;27;20492;-69
2022/12/09 08:38:47;;;;;;;55.80;11.95;;;;;;;2.64;89.87;100294.00;5047781;27;20533;-69
2022/12/09 08:41:16;;;;;;;136.60;13.45;;;;;;;2.29;91.28;100299.25;5048909;27;20671;-69
2022/12/09 08:43:43;;;;;;;146.70;11.88;;;;;;;2.44;91.33;100291.91;5039096;27;20066;-69
2022/12/09 08:46:11;;;;;;;82.55;11.48;;;;;;;2.02;93.80;100297.31;5048258;27;20389;-69
2022/12/09 08:48:40;;;;;;;102.15;13.32;;;;;;;2.38;92.30;100305.03;5051759;27;20442;-68
2022/12/09 08:51:08;;;;;;;91.53;13.68;;;;;;;1.94;94.81;100295.75;5041594;27;20063;-68
2022/12/09 08:53:34;;;;;;;44.47;10.40;;;;;;;1.65;96.58;100299.91;5047995;27;20536;-69
2022/12/09 08:56:08;;;;;;;80.22;11.90;;;;;;;2.12;95.17;100298.78;5048806;27;20487;-69
2022/12/09 08:58:34;;;;;;;31.90;11.02;;;;;;;2.56;94.41;100301.09;5048711;27;20385;-69
2022/12/09 09:01:00;;;;;;;40.78;9.85;;;;;;;2.53;93.00;100303.78;5046906;27;20404;-68
2022/12/09 09:03:28;;;;;;;143.52;13.00;;;;;;;3.03;92.25;100293.81;5045670;27;20415;-68
2022/12/09 09:06:00;;;;;;;120.18;12.02;;;;;;;3.38;88.46;100289.31;5053943;28;20048;-69
2022/12/09 09:08:27;;;;;;;103.35;12.43;;;;;;;3.31;89.27;100308.53;5063667;28;20614;-69
2022/12/09 09:10:53;;;;;;;36.25;11.35;;;;;;;3.40;88.51;100302.19;5044360;28;20051;-69
2022/12/09 09:13:20;;;;;;;87.45;12.00;;;;;;;3.22;88.38;100306.19;5051578;28;20106;-69
2022/12/09 09:15:46;;;;;;;46.42;11.07;;;;;;;2.68;91.59;100307.69;5047788;28;20123;-69
2022/12/09 09:18:14;;;;;;;97.82;12.45;;;;;;;2.80;91.78;100307.38;5045426;28;20408;-69
2022/12/09 09:20:46;;;;;;;178.88;13.40;;;;;;;3.33;89.01;100305.88;5056842;28;20055;-68
2022/12/09 09:23:13;;;;;;;29.42;9.18;;;;;;;2.41;91.79;100311.84;5048154;28;20060;-68
2022/12/09 09:25:40;;;;;;;56.25;9.93;;;;;;;2.37;94.63;100307.63;5038187;28;20044;-68
2022/12/09 09:28:07;;;;;;;88.03;11.38;;;;;;;2.10;95.47;100305.75;5051483;28;20051;-68
2022/12/09 09:30:34;;;;;;;42.83;10.93;;;;;;;2.03;96.42;100310.22;5050769;28;20044;-68
2022/12/09 09:33:00;;;;;;;148.00;16.00;;;;;;;2.89;94.48;100313.16;5040916;27;20102;-69
2022/12/09 09:35:26;;;;;;;76.25;13.07;;;;;;;2.91;92.27;100313.97;5050964;27;20049;-68
2022/12/09 09:37:54;;;;;;;99.80;12.73;;;;;;;2.82;93.28;100313.34;5051158;28;20051;-68
2022/12/09 09:40:21;;;;;;;64.75;12.73;;;;;;;3.01;93.67;100316.28;5040603;28;20059;-69
2022/12/09 09:42:49;;;;;;;98.55;13.90;;;;;;;3.57;90.49;100305.16;5050325;28;20052;-69
2022/12/09 09:45:19;;;;;;;50.03;11.70;;;;;;;3.88;88.29;100295.53;5050603;28;20128;-69
2022/12/09 09:47:52;;;;;;;48.33;14.05;;;;;;;3.85;87.43;100308.59;5037006;27;20519;-68
2022/12/09 09:50:27;;;;;;;39.22;13.23;;;;;;;3.82;87.78;100300.91;5088661;27;20048;-68
2022/12/09 09:52:55;;;;;;;52.75;13.05;;;;;;;3.79;87.62;100297.56;5044089;28;20049;-68
2022/12/09 09:55:31;;;;;;;33.35;11.23;;;;;;;3.62;87.96;100298.06;5065605;28;20044;-68
2022/12/09 09:58:05;;;;;;;30.92;11.13;;;;;;;3.55;89.24;100299.16;5051219;28;20086;-68
2022/12/09 10:00:35;;;;;;;30.73;12.05;;;;;;;3.40;89.65;100294.41;5050708;28;20044;-68
2022/12/09 10:03:09;;;;;;;28.00;11.25;;;;;;;3.84;88.56;100290.50;5056200;28;20420;-68
2022/12/09 10:05:40;;;;;;;29.58;11.70;;;;;;;3.35;88.81;100289.41;5062054;28;20048;-68
2022/12/09 10:08:21;;;;;;;35.55;12.57;;;;;;;3.20;91.09;100283.81;5067813;27;20129;-68
2022/12/09 10:10:58;;;;;;;34.38;13.10;;;;;;;3.55;90.88;100286.19;5022151;28;20656;-68
2022/12/09 10:13:36;;;;;;;29.60;11.77;;;;;;;3.90;88.97;100278.19;5030857;28;20068;-68
2022/12/09 10:16:13;;;;;;;28.70;11.40;;;;;;;4.18;87.76;100275.53;5045394;28;20079;-68
2022/12/09 10:18:47;;;;;;;25.00;10.48;;;;;;;4.44;86.56;100264.28;5084471;27;20090;-68
2022/12/09 10:21:16;;;;;;;26.20;10.90;;;;;;;4.80;84.43;100264.78;5056566;28;20052;-68
2022/12/09 10:23:45;;;;;;;28.00;10.02;;;;;;;4.87;84.60;100254.09;5050639;28;20076;-68
2022/12/09 10:26:18;;;;;;;24.33;10.90;;;;;;;5.29;82.09;100254.25;5050754;28;20048;-68
2022/12/09 10:28:52;;;;;;;23.17;9.00;;;;;;;5.17;82.47;100256.50;5040541;27;20037;-68
2022/12/09 10:31:19;;;;;;;20.75;8.23;;;;;;;5.33;81.34;100254.97;5050657;27;20049;-68
2022/12/09 10:33:45;;;;;;;24.83;9.80;;;;;;;5.04;81.38;100263.03;5042668;27;20055;-68
2022/12/09 10:36:25;;;;;;;19.80;8.15;;;;;;;4.81;81.81;100267.28;5051173;27;20083;-68
2022/12/09 10:38:53;;;;;;;22.83;8.95;;;;;;;4.67;80.89;100255.69;5049643;27;20047;-68
2022/12/09 10:44:24;;;;;;;18.85;8.27;;;;;;;4.56;82.20;100263.03;5041247;28;20051;-69
2022/12/09 10:46:57;;;;;;;17.30;7.38;;;;;;;4.63;81.56;100254.97;5049000;28;20044;-68
2022/12/09 10:49:24;;;;;;;19.33;8.18;;;;;;;4.80;81.20;100262.19;5058074;28;20049;-69
2022/12/09 10:51:52;;;;;;;21.05;8.20;;;;;;;5.02;80.89;100264.84;5051903;27;20671;-68
2022/12/09 10:54:29;;;;;;;20.40;7.75;;;;;;;5.36;81.30;100247.91;5086237;27;20518;-68
2022/12/09 10:57:20;;;;;;;20.90;9.07;;;;;;;5.79;80.42;100246.25;5058505;28;20063;-68
2022/12/09 10:59:58;;;;;;;22.38;9.93;;;;;;;5.67;81.53;100241.53;5049756;28;20044;-69
2022/12/09 11:02:25;;;;;;;22.48;9.43;;;;;;;5.87;80.52;100244.22;5043817;28;20609;-68
2022/12/09 11:04:51;;;;;;;19.85;9.32;;;;;;;6.00;78.46;100237.59;5049779;27;20051;-69
2022/12/09 11:07:20;;;;;;;21.42;8.90;;;;;;;6.12;77.44;100241.47;5050111;27;20040;-69
2022/12/09 11:09:50;;;;;;;20.15;9.10;;;;;;;6.14;76.59;100231.81;5048937;28;20471;-69
2022/12/09 11:12:19;;;;;;;21.70;9.02;;;;;;;6.25;76.08;100234.81;5063035;28;20048;-69
2022/12/09 11:14:51;;;;;;;19.75;8.98;;;;;;;5.77;77.15;100225.50;5056069;28;20515;-69
2022/12/09 11:17:21;;;;;;;25.90;10.25;;;;;;;5.85;77.31;100231.25;5049229;28;20048;-69
2022/12/09 11:19:51;;;;;;;19.77;8.80;;;;;;;6.01;76.91;100233.25;5061459;28;20044;-69
2022/12/09 11:22:27;;;;;;;20.13;9.45;;;;;;;5.96;76.50;100233.44;5062559;27;20055;-69
2022/12/09 11:25:05;;;;;;;19.08;9.93;;;;;;;5.97;76.16;100229.94;5058344;27;20063;-70
2022/12/09 11:27:33;;;;;;;19.85;8.35;;;;;;;6.01;76.74;100225.44;5040072;27;20048;-69
2022/12/09 11:30:13;;;;;;;18.55;8.15;;;;;;;5.81;77.20;100227.06;5048873;27;20059;-69